Time;durP1;ratioP1;P1;durP2;ratioP2;P2;SDS_P1;SDS_P2;PMS_P1;PMS_P2;Temp;Humidity;BMP_temperature;BMP_pressure;BME280_temperature;BME280_humidity;BME280_pressure;Samples;Min_cycle;Max_cycle;Signal;HPM_P1;HPM_P2
2024/03/08 00:01:16;;;;;;;0.30;0.10;;;;;;;6.87;73.39;100289.28;5066103;28;20535;-46
2024/03/08 00:03:42;;;;;;;0.30;0.20;;;;;;;6.97;73.25;100288.22;5092929;28;20576;-47
2024/03/08 00:06:09;;;;;;;0.30;0.20;;;;;;;7.07;72.46;100285.44;5093147;28;20510;-47
2024/03/08 00:08:35;;;;;;;0.30;0.20;;;;;;;6.97;72.44;100285.59;5092861;28;20526;-47
2024/03/08 00:11:02;;;;;;;2.40;2.23;;;;;;;6.88;72.79;100275.16;5092936;28;20489;-46
2024/03/08 00:13:29;;;;;;;0.30;0.20;;;;;;;6.82;73.48;100276.09;5093229;28;20480;-46
2024/03/08 00:15:57;;;;;;;0.30;0.10;;;;;;;6.75;74.57;100275.31;5092485;28;20849;-47
2024/03/08 00:18:24;;;;;;;0.30;0.20;;;;;;;6.62;74.45;100270.22;5092285;28;20526;-47
2024/03/08 00:20:50;;;;;;;0.30;0.20;;;;;;;6.58;74.23;100272.03;5092364;28;20449;-46
2024/03/08 00:23:17;;;;;;;0.30;0.20;;;;;;;6.41;74.98;100268.72;5090526;28;20511;-46
2024/03/08 00:25:43;;;;;;;0.30;0.20;;;;;;;6.47;74.93;100268.66;5092431;28;20880;-46
2024/03/08 00:28:13;;;;;;;0.30;0.10;;;;;;;6.26;75.99;100266.25;5092325;28;20500;-46
2024/03/08 00:30:39;;;;;;;0.30;0.20;;;;;;;6.19;76.12;100268.97;5092894;28;20517;-46
2024/03/08 00:33:06;;;;;;;0.30;0.10;;;;;;;6.25;76.24;100268.03;5091712;28;20536;-47
2024/03/08 00:35:32;;;;;;;0.30;0.10;;;;;;;6.19;76.42;100273.38;5076996;28;20496;-46
2024/03/08 00:37:59;;;;;;;0.30;0.10;;;;;;;6.00;76.84;100269.16;5081128;28;20473;-48
2024/03/08 00:40:25;;;;;;;0.30;0.10;;;;;;;6.01;76.37;100263.00;5067548;28;20492;-47
2024/03/08 00:42:53;;;;;;;0.30;0.10;;;;;;;5.94;76.81;100268.34;5078284;28;20564;-46
2024/03/08 00:45:19;;;;;;;0.30;0.17;;;;;;;6.04;76.69;100266.50;5092313;28;20441;-46
2024/03/08 00:47:46;;;;;;;0.30;0.17;;;;;;;5.84;77.10;100264.03;5078174;28;20474;-46
2024/03/08 00:50:12;;;;;;;0.73;0.67;;;;;;;5.87;76.63;100256.06;5092095;28;20490;-46
2024/03/08 00:52:39;;;;;;;0.30;0.20;;;;;;;5.66;77.24;100256.28;5075656;28;20451;-47
2024/03/08 00:55:07;;;;;;;1.03;1.03;;;;;;;5.62;77.34;100242.28;5095897;28;20498;-47
2024/03/08 00:57:34;;;;;;;0.30;0.20;;;;;;;5.59;77.62;100255.47;5088673;28;20480;-46
2024/03/08 01:00:03;;;;;;;0.30;0.10;;;;;;;5.58;77.49;100244.94;5095801;28;20532;-46
2024/03/08 01:02:30;;;;;;;1.20;1.20;;;;;;;5.53;77.55;100254.66;5095280;28;20488;-46
2024/03/08 01:04:56;;;;;;;0.30;0.20;;;;;;;5.49;77.05;100248.53;5096241;28;20548;-45
2024/03/08 01:07:24;;;;;;;0.30;0.20;;;;;;;5.63;77.88;100245.78;5095878;28;20548;-47
2024/03/08 01:09:50;;;;;;;0.30;0.10;;;;;;;5.56;77.77;100244.06;5095904;28;20472;-46
2024/03/08 01:12:17;;;;;;;0.30;0.10;;;;;;;5.33;78.04;100239.88;5095620;28;20450;-47
2024/03/08 01:14:43;;;;;;;0.30;0.20;;;;;;;5.34;77.84;100235.47;5075198;28;20459;-47
2024/03/08 01:17:10;;;;;;;0.30;0.20;;;;;;;5.33;78.33;100241.63;5096021;28;20465;-46
2024/03/08 01:19:37;;;;;;;0.30;0.13;;;;;;;5.31;78.21;100231.09;5096671;28;20449;-47
2024/03/08 01:22:03;;;;;;;0.30;0.17;;;;;;;5.01;78.06;100232.22;5093085;28;20484;-46
2024/03/08 01:24:29;;;;;;;0.40;0.30;;;;;;;5.02;79.39;100226.06;5096465;28;20929;-46
2024/03/08 01:26:56;;;;;;;0.30;0.13;;;;;;;4.98;79.02;100226.97;5096523;28;20560;-47
2024/03/08 01:29:22;;;;;;;0.30;0.10;;;;;;;4.81;79.63;100231.50;5096368;28;20825;-47
2024/03/08 01:31:49;;;;;;;0.30;0.20;;;;;;;4.85;79.85;100222.69;5095945;28;20445;-46
2024/03/08 01:34:15;;;;;;;0.30;0.20;;;;;;;4.89;79.49;100218.25;5096807;28;20463;-47
2024/03/08 01:36:42;;;;;;;0.30;0.17;;;;;;;4.72;79.69;100215.72;5097028;28;20453;-46
2024/03/08 01:39:09;;;;;;;0.30;0.20;;;;;;;4.76;80.24;100222.72;5085424;28;20454;-46
2024/03/08 01:41:36;;;;;;;0.30;0.20;;;;;;;4.84;79.77;100210.41;5086679;28;20449;-48
2024/03/08 01:44:03;;;;;;;0.30;0.10;;;;;;;4.78;79.53;100205.16;5096285;28;20546;-47
2024/03/08 01:46:30;;;;;;;0.30;0.13;;;;;;;4.73;79.44;100205.19;5096355;28;20449;-47
2024/03/08 01:48:57;;;;;;;0.30;0.20;;;;;;;4.67;79.90;100202.59;5096701;28;20477;-47
2024/03/08 01:51:24;;;;;;;0.30;0.10;;;;;;;4.69;79.03;100195.56;5096406;28;20496;-47
2024/03/08 01:53:50;;;;;;;0.30;0.10;;;;;;;4.61;79.23;100194.72;5070259;28;20440;-47
2024/03/08 01:56:18;;;;;;;0.30;0.20;;;;;;;4.50;80.17;100195.66;5096566;28;20502;-47
2024/03/08 01:58:44;;;;;;;0.30;0.20;;;;;;;4.59;80.31;100195.63;5095765;28;20480;-47
2024/03/08 02:01:13;;;;;;;0.30;0.10;;;;;;;4.39;80.59;100195.75;5094980;28;20510;-47
2024/03/08 02:03:43;;;;;;;0.30;0.20;;;;;;;4.39;80.33;100191.38;5094996;28;20493;-47
2024/03/08 02:06:16;;;;;;;0.30;0.30;;;;;;;4.47;80.94;100186.91;5093562;28;20826;-46
2024/03/08 02:08:46;;;;;;;0.30;0.20;;;;;;;4.30;80.85;100188.78;5094696;28;20469;-46
2024/03/08 02:11:14;;;;;;;0.30;0.20;;;;;;;4.36;80.69;100187.84;5094560;28;20441;-47
2024/03/08 02:13:41;;;;;;;0.30;0.13;;;;;;;4.32;80.86;100191.38;5086653;28;20510;-47
2024/03/08 02:16:08;;;;;;;0.30;0.10;;;;;;;4.18;81.24;100186.19;5089995;28;20536;-47
2024/03/08 02:18:36;;;;;;;0.30;0.20;;;;;;;4.21;81.18;100185.28;5094109;28;20487;-47
2024/03/08 02:21:05;;;;;;;0.30;0.17;;;;;;;4.01;82.30;100181.00;5093821;28;20834;-47
2024/03/08 02:23:32;;;;;;;0.30;0.10;;;;;;;4.03;82.49;100175.75;5080512;28;20634;-46
2024/03/08 02:25:59;;;;;;;0.30;0.10;;;;;;;4.07;82.55;100177.47;5093546;28;20603;-47
2024/03/08 02:28:26;;;;;;;0.30;0.20;;;;;;;3.91;82.60;100165.25;5093946;28;20469;-47
2024/03/08 02:30:55;;;;;;;0.30;0.10;;;;;;;3.95;82.74;100165.25;5094191;28;20441;-47
2024/03/08 02:33:25;;;;;;;0.30;0.17;;;;;;;3.88;83.30;100170.53;5094402;28;20441;-46
2024/03/08 02:35:52;;;;;;;0.23;0.10;;;;;;;3.96;82.64;100166.09;5094044;28;20872;-47
2024/03/08 02:38:20;;;;;;;0.27;0.10;;;;;;;3.89;83.35;100159.13;5094186;28;20476;-47
2024/03/08 02:40:50;;;;;;;0.30;0.20;;;;;;;3.85;83.45;100167.03;5059489;28;20491;-46
2024/03/08 02:43:18;;;;;;;0.30;0.10;;;;;;;3.88;83.21;100160.03;5077746;28;20489;-46
2024/03/08 02:45:45;;;;;;;0.30;0.10;;;;;;;3.82;83.14;100160.91;5094209;28;20445;-46
2024/03/08 02:48:13;;;;;;;0.30;0.20;;;;;;;3.79;83.46;100148.66;5093910;28;20548;-47
2024/03/08 02:50:42;;;;;;;0.30;0.20;;;;;;;3.85;83.56;100153.91;5093965;28;20444;-47
2024/03/08 02:53:09;;;;;;;0.20;0.20;;;;;;;3.79;83.36;100153.03;5080369;28;20487;-46
2024/03/08 02:55:37;;;;;;;0.30;0.10;;;;;;;3.73;83.68;100145.19;5093840;28;20449;-46
2024/03/08 02:58:04;;;;;;;0.30;0.10;;;;;;;3.81;83.55;100152.13;5093666;28;20523;-47
2024/03/08 03:00:31;;;;;;;0.30;0.20;;;;;;;3.69;83.53;100149.56;5093419;28;20449;-46
2024/03/08 03:02:57;;;;;;;0.30;0.10;;;;;;;3.67;83.47;100146.06;5093001;28;20445;-46
2024/03/08 03:05:24;;;;;;;0.30;0.10;;;;;;;3.71;83.09;100147.81;5092838;28;20482;-47
2024/03/08 03:07:51;;;;;;;0.20;0.20;;;;;;;3.63;83.69;100148.72;5093088;28;20471;-47
2024/03/08 03:10:18;;;;;;;0.30;0.10;;;;;;;3.57;83.77;100144.34;5092849;28;21060;-47
2024/03/08 03:12:48;;;;;;;0.30;0.20;;;;;;;3.60;83.59;100144.34;5093140;28;20445;-46
2024/03/08 03:15:16;;;;;;;0.20;0.10;;;;;;;3.63;83.27;100143.44;5092940;28;20880;-46
2024/03/08 03:17:50;;;;;;;0.20;0.20;;;;;;;3.63;83.44;100143.44;5093093;28;20590;-46
2024/03/08 03:20:26;;;;;;;0.20;0.20;;;;;;;3.62;83.51;100144.34;5092929;28;20441;-46
2024/03/08 03:22:53;;;;;;;0.20;0.10;;;;;;;3.56;83.71;100150.47;5093390;28;20437;-46
2024/03/08 03:25:28;;;;;;;2.53;2.33;;;;;;;3.55;83.59;100146.09;5093060;28;20449;-46
2024/03/08 03:27:58;;;;;;;0.20;0.10;;;;;;;3.45;83.99;100145.25;5093286;28;20460;-47
2024/03/08 03:30:26;;;;;;;0.20;0.10;;;;;;;3.52;83.96;100130.34;5091563;28;20444;-47
2024/03/08 03:32:54;;;;;;;0.20;0.10;;;;;;;3.50;83.68;100132.09;5093077;28;20525;-47
2024/03/08 03:35:22;;;;;;;0.20;0.10;;;;;;;3.42;83.76;100128.59;5091831;28;20449;-47
2024/03/08 03:38:02;;;;;;;0.20;0.20;;;;;;;3.53;83.95;100129.47;5092777;28;20465;-47
2024/03/08 03:40:29;;;;;;;0.20;0.13;;;;;;;3.39;84.26;100124.22;5064099;28;20504;-47
2024/03/08 03:42:56;;;;;;;0.30;0.20;;;;;;;3.46;83.87;100125.13;5070629;28;20445;-47
2024/03/08 03:45:23;;;;;;;0.30;0.10;;;;;;;3.44;83.89;100130.38;5092023;28;20449;-46
2024/03/08 03:47:51;;;;;;;0.20;0.10;;;;;;;3.44;83.81;100126.88;5092989;28;20518;-47
2024/03/08 03:50:21;;;;;;;0.20;0.10;;;;;;;3.41;84.16;100124.22;5092922;28;20445;-47
2024/03/08 03:52:48;;;;;;;0.30;0.10;;;;;;;3.34;84.28;100123.38;5077828;28;20938;-46
2024/03/08 03:55:15;;;;;;;0.20;0.10;;;;;;;3.30;84.59;100126.91;5093003;28;20437;-47
2024/03/08 03:57:41;;;;;;;0.20;0.10;;;;;;;3.20;84.85;100118.16;5092664;28;21009;-46
2024/03/08 04:00:10;;;;;;;0.20;0.10;;;;;;;3.28;85.19;100115.50;5093693;28;20451;-49
2024/03/08 04:02:38;;;;;;;0.30;0.10;;;;;;;3.38;84.61;100113.72;5092597;28;20834;-49
2024/03/08 04:05:06;;;;;;;0.30;0.20;;;;;;;3.25;84.95;100121.63;5092965;28;20480;-49
2024/03/08 04:07:32;;;;;;;0.30;0.20;;;;;;;3.23;84.66;100112.88;5092472;28;20475;-49
2024/03/08 04:09:59;;;;;;;0.30;0.30;;;;;;;3.30;85.35;100115.53;5092628;28;20536;-49
2024/03/08 04:12:25;;;;;;;0.30;0.20;;;;;;;3.28;85.02;100112.88;5092930;28;20467;-49
2024/03/08 04:14:53;;;;;;;0.20;0.10;;;;;;;3.13;85.30;100108.53;5092669;28;20441;-49
2024/03/08 04:17:19;;;;;;;0.20;0.20;;;;;;;3.15;85.97;100111.13;5092492;28;20580;-49
2024/03/08 04:19:48;;;;;;;0.20;0.10;;;;;;;3.04;86.27;100110.31;5092718;28;20536;-49
2024/03/08 04:22:14;;;;;;;0.20;0.10;;;;;;;3.06;86.64;100108.56;5090429;28;20509;-48
2024/03/08 04:24:41;;;;;;;0.20;0.10;;;;;;;3.00;86.89;100108.53;5092662;28;20492;-49
2024/03/08 04:27:07;;;;;;;0.20;0.10;;;;;;;3.04;86.87;100105.94;5092671;28;20465;-49
2024/03/08 04:29:34;;;;;;;0.20;0.20;;;;;;;3.03;87.10;100103.31;5095555;28;20477;-49
2024/03/08 04:32:03;;;;;;;0.20;0.10;;;;;;;3.03;87.28;100103.31;5096070;28;20444;-49
2024/03/08 04:34:31;;;;;;;0.20;0.17;;;;;;;3.05;87.21;100099.81;5095981;28;20448;-49
2024/03/08 04:36:58;;;;;;;0.20;0.10;;;;;;;2.97;87.27;100099.78;5095717;28;20559;-49
2024/03/08 04:39:27;;;;;;;0.20;0.10;;;;;;;2.98;87.51;100100.66;5084777;28;20970;-48
2024/03/08 04:41:57;;;;;;;0.30;0.20;;;;;;;3.07;87.59;100098.03;5062934;28;20458;-49
2024/03/08 04:44:24;;;;;;;0.20;0.10;;;;;;;3.03;87.16;100105.94;5068121;28;20841;-48
2024/03/08 04:46:51;;;;;;;0.20;0.10;;;;;;;3.02;87.42;100093.69;5095977;28;20536;-49
2024/03/08 04:49:17;;;;;;;0.27;0.10;;;;;;;3.09;86.83;100088.41;5096111;28;20532;-49
2024/03/08 04:51:44;;;;;;;0.30;0.13;;;;;;;3.00;87.52;100090.16;5092456;28;20441;-49
2024/03/08 04:54:11;;;;;;;0.20;0.10;;;;;;;2.97;87.45;100086.66;5086851;28;20477;-48
2024/03/08 04:56:38;;;;;;;0.20;0.20;;;;;;;3.00;87.43;100088.41;5096358;28;20551;-49
2024/03/08 04:59:07;;;;;;;0.20;0.10;;;;;;;2.91;87.60;100091.06;5096327;28;20532;-53
2024/03/08 05:01:37;;;;;;;0.20;0.10;;;;;;;2.98;87.64;100083.16;5095781;28;20897;-49
2024/03/08 05:04:05;;;;;;;0.20;0.10;;;;;;;2.95;88.02;100093.69;5095200;28;20543;-49
2024/03/08 05:06:36;;;;;;;1.23;1.23;;;;;;;2.93;87.98;100084.94;5095288;28;20882;-49
2024/03/08 05:09:15;;;;;;;0.20;0.10;;;;;;;2.92;88.36;100082.31;5095275;28;20448;-49
2024/03/08 05:11:43;;;;;;;0.20;0.10;;;;;;;2.90;88.46;100082.31;5095522;28;20441;-49
2024/03/08 05:14:11;;;;;;;0.20;0.10;;;;;;;2.81;88.74;100084.06;5095152;28;20524;-49
2024/03/08 05:16:37;;;;;;;0.20;0.10;;;;;;;2.75;89.28;100077.09;5095115;28;20528;-49
2024/03/08 05:19:04;;;;;;;0.20;0.10;;;;;;;2.80;89.24;100077.06;5095024;28;20449;-49
2024/03/08 05:21:30;;;;;;;0.20;0.10;;;;;;;2.75;89.04;100078.84;5095029;28;20449;-49
2024/03/08 05:23:56;;;;;;;0.30;0.20;;;;;;;2.75;89.52;100068.34;5093616;28;20569;-49
2024/03/08 05:26:23;;;;;;;0.20;0.10;;;;;;;2.72;89.17;100079.69;5095120;28;20449;-49
2024/03/08 05:28:50;;;;;;;0.30;0.20;;;;;;;2.78;89.19;100066.59;5094776;28;20469;-49
2024/03/08 05:31:22;;;;;;;0.30;0.20;;;;;;;2.88;89.25;100080.56;5094994;28;20483;-49
2024/03/08 05:33:49;;;;;;;0.20;0.10;;;;;;;2.66;89.84;100069.22;5095905;28;20449;-49
2024/03/08 05:36:16;;;;;;;0.20;0.10;;;;;;;2.69;89.88;100071.81;5095235;28;20961;-49
2024/03/08 05:38:43;;;;;;;0.20;0.10;;;;;;;2.71;90.26;100069.19;5094529;28;20468;-49
2024/03/08 05:41:14;;;;;;;0.30;0.20;;;;;;;2.62;90.44;100065.72;5056023;28;20451;-49
2024/03/08 05:43:41;;;;;;;0.20;0.10;;;;;;;2.59;90.82;100073.56;5083627;28;20506;-48
2024/03/08 05:46:08;;;;;;;0.30;0.20;;;;;;;2.52;90.21;100058.72;5094983;28;20537;-49
2024/03/08 05:48:34;;;;;;;0.20;0.10;;;;;;;2.56;90.52;100067.44;5095203;28;20840;-49
2024/03/08 05:51:01;;;;;;;0.20;0.10;;;;;;;2.60;91.34;100059.59;5095345;28;20476;-49
2024/03/08 05:53:31;;;;;;;0.30;0.20;;;;;;;2.65;91.28;100055.22;5080236;28;20484;-49
2024/03/08 05:55:58;;;;;;;0.20;0.10;;;;;;;2.51;91.01;100063.97;5094952;28;20999;-49
2024/03/08 05:58:25;;;;;;;0.20;0.10;;;;;;;2.52;91.97;100052.59;5094782;28;20997;-49
2024/03/08 06:00:51;;;;;;;0.20;0.10;;;;;;;2.56;91.76;100057.81;5094738;28;20543;-49
2024/03/08 06:03:21;;;;;;;0.20;0.10;;;;;;;2.56;91.60;100057.81;5095007;28;20532;-50
2024/03/08 06:05:50;;;;;;;0.20;0.10;;;;;;;2.43;91.82;100058.69;5094875;28;20614;-49
2024/03/08 06:08:18;;;;;;;0.20;0.10;;;;;;;2.60;92.15;100056.97;5095049;28;20522;-49
2024/03/08 06:10:45;;;;;;;0.20;0.10;;;;;;;2.52;91.49;100058.72;5094749;28;20459;-49
2024/03/08 06:13:12;;;;;;;0.20;0.10;;;;;;;2.56;92.20;100060.44;5094840;28;20851;-49
2024/03/08 06:15:39;;;;;;;0.20;0.10;;;;;;;2.62;91.92;100059.59;5094786;28;20822;-49
2024/03/08 06:18:06;;;;;;;0.20;0.20;;;;;;;2.49;92.23;100061.34;5094845;28;21001;-49
2024/03/08 06:20:32;;;;;;;0.20;0.10;;;;;;;2.53;92.30;100057.84;5094937;28;20456;-49
2024/03/08 06:22:59;;;;;;;0.30;0.20;;;;;;;2.44;92.54;100062.19;5092787;28;20930;-49
2024/03/08 06:25:26;;;;;;;0.20;0.20;;;;;;;2.50;93.15;100057.84;5094299;28;20485;-49
2024/03/08 06:27:53;;;;;;;0.20;0.10;;;;;;;2.52;92.31;100053.47;5094649;28;20465;-49
2024/03/08 06:30:21;;;;;;;0.20;0.10;;;;;;;2.49;92.91;100053.47;5094121;28;20536;-49
2024/03/08 06:32:47;;;;;;;0.20;0.10;;;;;;;2.49;92.86;100056.09;5094385;28;20582;-49
2024/03/08 06:35:15;;;;;;;0.20;0.10;;;;;;;2.54;93.08;100059.59;5094304;28;20448;-49
2024/03/08 06:37:44;;;;;;;0.20;0.10;;;;;;;2.60;92.29;100056.06;5094090;28;20508;-49
2024/03/08 06:40:13;;;;;;;0.20;0.10;;;;;;;2.71;92.25;100054.31;5069397;28;20447;-49
2024/03/08 06:42:41;;;;;;;0.20;0.10;;;;;;;2.74;92.08;100067.47;5068008;28;20533;-49
2024/03/08 06:45:09;;;;;;;4.13;1.40;;;;;;;2.85;92.04;100063.06;5094087;28;20485;-49
2024/03/08 06:47:36;;;;;;;0.20;0.10;;;;;;;2.86;91.68;100066.56;5094057;28;20882;-49
2024/03/08 06:50:04;;;;;;;0.20;0.10;;;;;;;2.87;91.77;100061.31;5094108;28;20914;-49
2024/03/08 06:52:30;;;;;;;0.20;0.10;;;;;;;2.86;91.89;100062.19;5078860;28;20451;-49
2024/03/08 06:54:57;;;;;;;0.20;0.10;;;;;;;2.92;90.98;100063.94;5094523;28;20437;-49
2024/03/08 06:57:23;;;;;;;0.20;0.10;;;;;;;3.02;91.34;100062.19;5093855;28;20480;-49
2024/03/08 06:59:52;;;;;;;0.30;0.10;;;;;;;2.98;91.24;100062.16;5093987;28;21005;-49
2024/03/08 07:02:18;;;;;;;0.20;0.10;;;;;;;2.97;91.78;100075.28;5093259;28;21019;-49
2024/03/08 07:04:45;;;;;;;0.30;0.10;;;;;;;3.18;91.90;100063.91;5093050;28;20488;-49
2024/03/08 07:07:11;;;;;;;0.20;0.10;;;;;;;3.10;91.55;100066.53;5092813;28;20501;-49
2024/03/08 07:09:38;;;;;;;0.20;0.10;;;;;;;3.14;91.73;100060.38;5093328;28;20441;-49
2024/03/08 07:12:05;;;;;;;0.20;0.10;;;;;;;3.21;90.61;100062.13;5092886;28;20539;-49
2024/03/08 07:14:31;;;;;;;0.20;0.10;;;;;;;3.21;90.55;100062.13;5093245;28;20505;-49
2024/03/08 07:16:58;;;;;;;0.20;0.10;;;;;;;3.25;90.94;100058.59;5092697;28;21022;-49
2024/03/08 07:19:24;;;;;;;0.20;0.10;;;;;;;3.41;90.55;100058.56;5093609;28;20453;-49
2024/03/08 07:21:51;;;;;;;0.20;0.10;;;;;;;3.42;90.12;100058.53;5092616;28;20453;-49
2024/03/08 07:26:44;;;;;;;1.80;1.80;;;;;;;3.61;89.77;100056.75;5093563;28;20498;-49
2024/03/08 07:29:10;;;;;;;0.20;0.10;;;;;;;3.56;90.34;100045.34;5093312;28;20946;-49
2024/03/08 07:34:07;;;;;;;0.30;0.20;;;;;;;3.73;89.49;100043.53;5093241;28;20523;-49
2024/03/08 07:36:37;;;;;;;0.30;0.20;;;;;;;3.75;89.49;100049.66;5093177;28;20524;-49
2024/03/08 07:39:11;;;;;;;0.20;0.10;;;;;;;3.77;88.94;100044.41;5087601;28;20451;-49
2024/03/08 07:41:39;;;;;;;0.20;0.10;;;;;;;3.93;88.81;100042.56;5059266;28;20442;-49
2024/03/08 07:44:07;;;;;;;0.20;0.10;;;;;;;4.11;88.36;100043.34;5085048;28;20453;-50
2024/03/08 07:46:34;;;;;;;0.20;0.10;;;;;;;4.25;88.25;100037.97;5092895;28;20820;-50
2024/03/08 07:49:00;;;;;;;0.20;0.10;;;;;;;4.17;88.08;100037.16;5093074;28;20452;-49
2024/03/08 07:51:27;;;;;;;0.20;0.10;;;;;;;4.12;87.45;100044.22;5093350;28;20456;-49
2024/03/08 07:53:54;;;;;;;0.20;0.10;;;;;;;4.26;87.78;100038.84;5077689;28;20449;-49
2024/03/08 07:56:26;;;;;;;0.20;0.10;;;;;;;4.32;87.21;100033.53;5092065;28;20552;-50
2024/03/08 07:58:53;;;;;;;0.20;0.10;;;;;;;4.43;87.43;100029.94;5092986;28;20477;-49
2024/03/08 08:01:20;;;;;;;0.23;0.10;;;;;;;4.59;86.95;100032.44;5066240;28;20460;-49
2024/03/08 08:03:48;;;;;;;4.33;4.13;;;;;;;4.45;86.09;100030.78;5094700;28;21015;-49
2024/03/08 08:06:15;;;;;;;0.30;0.10;;;;;;;4.55;86.03;100034.22;5096768;28;20519;-49
2024/03/08 08:08:43;;;;;;;0.30;0.30;;;;;;;4.63;85.07;100031.53;5096412;28;21051;-49
2024/03/08 08:11:11;;;;;;;0.20;0.10;;;;;;;4.60;85.46;100031.56;5096769;28;20444;-49
2024/03/08 08:13:38;;;;;;;0.30;0.20;;;;;;;4.63;84.73;100027.13;5096534;28;20445;-49
2024/03/08 08:16:06;;;;;;;0.20;0.10;;;;;;;4.68;84.73;100012.19;5096456;28;20444;-49
2024/03/08 08:18:33;;;;;;;0.20;0.10;;;;;;;4.66;84.75;100018.31;5096551;28;20556;-49
2024/03/08 08:21:02;;;;;;;0.20;0.10;;;;;;;4.72;84.71;100015.66;5096974;28;20479;-49
2024/03/08 08:23:29;;;;;;;0.30;0.30;;;;;;;4.98;84.49;100005.75;5094945;28;20519;-49
2024/03/08 08:25:56;;;;;;;0.20;0.10;;;;;;;4.97;83.04;100022.44;5096409;28;20488;-49
2024/03/08 08:28:22;;;;;;;0.20;0.10;;;;;;;5.00;83.64;100006.59;5095960;28;20472;-49
2024/03/08 08:30:49;;;;;;;0.20;0.10;;;;;;;4.95;83.39;100013.69;5096507;28;20448;-49
2024/03/08 08:33:16;;;;;;;0.20;0.10;;;;;;;4.94;83.52;100011.06;5096458;28;20487;-49
2024/03/08 08:35:42;;;;;;;0.20;0.10;;;;;;;5.18;82.77;100004.63;5096788;28;20535;-49
2024/03/08 08:38:09;;;;;;;0.30;0.20;;;;;;;5.45;82.67;100001.66;5073997;28;20487;-49
2024/03/08 08:40:38;;;;;;;0.30;0.10;;;;;;;5.38;82.15;99997.38;5076576;28;20931;-49
2024/03/08 08:43:05;;;;;;;0.30;0.20;;;;;;;5.54;81.28;99990.16;5066997;28;20484;-49
2024/03/08 08:45:31;;;;;;;0.20;0.20;;;;;;;5.64;81.03;99978.59;5098328;28;20495;-49
2024/03/08 08:47:59;;;;;;;0.30;0.20;;;;;;;5.57;81.51;99977.78;5088567;28;20850;-49
2024/03/08 08:50:28;;;;;;;0.30;0.20;;;;;;;5.50;80.68;99984.06;5095979;28;20950;-49
2024/03/08 08:52:55;;;;;;;0.20;0.20;;;;;;;5.64;81.28;99982.09;5083002;28;20452;-49
2024/03/08 08:55:25;;;;;;;0.30;0.17;;;;;;;5.65;81.16;99960.13;5098093;28;20444;-49
2024/03/08 08:57:52;;;;;;;0.30;0.20;;;;;;;5.76;79.98;99977.56;5097966;28;20993;-49
2024/03/08 09:00:20;;;;;;;0.30;0.10;;;;;;;5.94;79.97;99972.03;5089321;28;20520;-48
2024/03/08 09:02:48;;;;;;;0.30;0.10;;;;;;;5.77;78.86;99958.19;5096443;28;20445;-50
2024/03/08 09:05:16;;;;;;;0.30;0.10;;;;;;;5.97;79.51;99960.56;5096501;28;20625;-48
2024/03/08 09:07:44;;;;;;;0.30;0.20;;;;;;;5.98;78.95;99960.53;5096559;28;21037;-49
2024/03/08 09:10:12;;;;;;;0.30;0.10;;;;;;;6.28;78.05;99951.25;5096615;28;20479;-49
2024/03/08 09:12:41;;;;;;;0.30;0.20;;;;;;;6.51;77.93;99950.88;5086668;28;21030;-49
2024/03/08 09:15:08;;;;;;;0.30;0.20;;;;;;;6.25;77.99;99953.94;5083906;28;20591;-50
2024/03/08 09:17:40;;;;;;;2.70;2.60;;;;;;;6.25;78.37;99940.75;5086870;28;20466;-49
2024/03/08 09:20:10;;;;;;;0.30;0.20;;;;;;;6.22;77.48;99944.31;5091143;28;20477;-49
2024/03/08 09:22:37;;;;;;;0.30;0.13;;;;;;;6.43;77.06;99939.56;5094596;28;20507;-49
2024/03/08 09:25:05;;;;;;;0.30;0.20;;;;;;;6.89;76.18;99930.81;5096131;28;20542;-49
2024/03/08 09:27:32;;;;;;;0.30;0.10;;;;;;;6.55;76.51;99952.56;5096758;28;21050;-50
2024/03/08 09:30:01;;;;;;;0.30;0.10;;;;;;;6.76;76.15;99938.09;5096266;28;20946;-49
2024/03/08 09:32:27;;;;;;;0.30;0.10;;;;;;;6.86;75.55;99934.41;5088031;28;20499;-49
2024/03/08 09:34:55;;;;;;;0.30;0.20;;;;;;;6.94;74.07;99934.22;5090842;28;20470;-49
2024/03/08 09:37:22;;;;;;;0.30;0.10;;;;;;;7.09;74.10;99924.22;5095783;28;20460;-50
2024/03/08 09:39:49;;;;;;;0.30;0.20;;;;;;;6.81;73.17;99931.81;5078012;28;20443;-49
2024/03/08 09:42:16;;;;;;;0.30;0.20;;;;;;;7.21;72.42;99922.22;5074270;28;20959;-49
2024/03/08 09:44:46;;;;;;;0.30;0.20;;;;;;;7.31;72.77;99919.38;5080334;28;20457;-50
2024/03/08 09:47:14;;;;;;;0.30;0.20;;;;;;;7.19;73.27;99916.97;5091844;28;20540;-49
2024/03/08 09:49:41;;;;;;;0.30;0.20;;;;;;;7.52;73.05;99898.63;5093173;28;20506;-50
2024/03/08 09:52:09;;;;;;;0.30;0.20;;;;;;;7.62;71.44;99901.03;5077253;28;20450;-50
2024/03/08 09:54:36;;;;;;;0.30;0.20;;;;;;;7.59;71.63;99889.66;5092736;28;20537;-49
2024/03/08 09:57:08;;;;;;;0.30;0.20;;;;;;;7.42;71.43;99890.06;5076066;28;20478;-49
2024/03/08 10:02:04;;;;;;;0.30;0.20;;;;;;;7.83;70.59;99889.09;5065093;28;20502;-47
2024/03/08 10:04:32;;;;;;;0.30;0.20;;;;;;;7.60;70.20;99883.47;5094297;28;20449;-47
2024/03/08 10:07:01;;;;;;;0.30;0.20;;;;;;;7.91;69.36;99876.53;5068760;28;20524;-47
2024/03/08 10:09:28;;;;;;;0.30;0.20;;;;;;;7.80;68.90;99875.94;5096259;28;20445;-47
2024/03/08 10:12:00;;;;;;;0.30;0.20;;;;;;;7.98;68.93;99870.19;5095415;28;20523;-46
2024/03/08 10:14:27;;;;;;;0.30;0.20;;;;;;;7.97;68.24;99871.13;5072400;28;20461;-46
2024/03/08 10:16:54;;;;;;;0.30;0.20;;;;;;;7.98;67.75;99861.41;5095270;28;20913;-47
2024/03/08 10:19:20;;;;;;;0.30;0.13;;;;;;;8.07;67.72;99868.22;5079002;28;20453;-46
2024/03/08 10:21:56;;;;;;;0.30;0.20;;;;;;;8.37;66.35;99867.47;5090577;28;20498;-46
2024/03/08 10:24:26;;;;;;;0.30;0.20;;;;;;;8.58;65.03;99858.94;5086547;28;20438;-46
2024/03/08 10:27:04;;;;;;;0.30;0.20;;;;;;;8.12;65.55;99853.97;5068606;28;20491;-47
2024/03/08 10:29:31;;;;;;;0.30;0.23;;;;;;;8.46;65.92;99842.50;5088994;28;20528;-46
2024/03/08 10:31:58;;;;;;;0.30;0.20;;;;;;;8.58;65.39;99850.13;5083652;28;20956;-46
2024/03/08 10:34:25;;;;;;;0.30;0.20;;;;;;;8.55;64.95;99847.56;5094725;28;20966;-47
2024/03/08 10:36:52;;;;;;;0.30;0.20;;;;;;;8.65;63.78;99848.19;5096303;28;20449;-47
2024/03/08 10:39:25;;;;;;;0.40;0.40;;;;;;;8.49;64.33;99835.34;5085124;28;20450;-47
2024/03/08 10:42:02;;;;;;;0.70;0.70;;;;;;;8.48;64.23;99836.25;5057747;28;20822;-46
2024/03/08 10:44:29;;;;;;;0.30;0.20;;;;;;;9.01;64.35;99823.25;5082562;28;20928;-47
2024/03/08 10:47:23;;;;;;;0.40;0.40;;;;;;;9.08;61.29;99813.38;5083918;28;20579;-47
2024/03/08 10:50:21;;;;;;;0.30;0.20;;;;;;;8.96;62.86;99822.53;5059335;28;20449;-49
2024/03/08 10:53:06;;;;;;;0.30;0.20;;;;;;;8.66;62.63;99820.78;5085174;28;20934;-49
2024/03/08 10:55:57;;;;;;;0.30;0.20;;;;;;;9.01;61.91;99817.97;5083749;28;20483;-50
2024/03/08 10:58:27;;;;;;;0.30;0.20;;;;;;;8.71;62.78;99822.38;5094431;28;21023;-49
2024/03/08 11:00:55;;;;;;;0.30;0.20;;;;;;;8.74;63.17;99816.13;5066247;28;20506;-49
2024/03/08 11:03:40;;;;;;;0.40;0.20;;;;;;;9.06;63.23;99810.75;5070999;28;20459;-49
2024/03/08 11:06:09;;;;;;;0.30;0.20;;;;;;;9.16;62.92;99806.88;5079583;28;20573;-49
2024/03/08 11:08:36;;;;;;;0.30;0.20;;;;;;;9.11;62.09;99802.66;5072971;28;20519;-49
2024/03/08 11:11:04;;;;;;;0.30;0.20;;;;;;;9.42;62.81;99805.22;5081611;28;20994;-49
2024/03/08 11:13:43;;;;;;;0.30;0.20;;;;;;;9.17;61.23;99798.03;5074160;28;20457;-48
2024/03/08 11:16:10;;;;;;;0.30;0.20;;;;;;;9.81;60.75;99787.13;5086644;28;20476;-49
2024/03/08 11:18:37;;;;;;;0.30;0.20;;;;;;;9.43;60.12;99794.56;5092900;28;20970;-49
2024/03/08 11:21:12;;;;;;;0.30;0.20;;;;;;;9.71;59.99;99793.66;5094578;28;20942;-49
2024/03/08 11:23:41;;;;;;;0.30;0.20;;;;;;;9.92;59.98;99784.13;5075908;28;20457;-49
2024/03/08 11:26:23;;;;;;;0.30;0.20;;;;;;;10.09;58.47;99784.41;5066457;28;20568;-49
2024/03/08 11:28:53;;;;;;;0.30;0.20;;;;;;;10.20;57.88;99786.69;5066974;28;20552;-50
2024/03/08 11:31:26;;;;;;;0.30;0.20;;;;;;;9.91;58.37;99787.69;5077438;28;20482;-50
2024/03/08 11:33:54;;;;;;;0.30;0.20;;;;;;;9.48;59.20;99781.16;5067884;28;20450;-50
2024/03/08 11:36:24;;;;;;;0.30;0.20;;;;;;;9.43;61.01;99770.69;5069666;28;20454;-47
2024/03/08 11:38:55;;;;;;;0.30;0.20;;;;;;;9.56;60.56;99771.16;5081400;28;20468;-48
2024/03/08 11:41:23;;;;;;;0.30;0.20;;;;;;;9.70;60.50;99768.91;5058253;28;20551;-47
2024/03/08 11:44:05;;;;;;;0.30;0.20;;;;;;;9.81;59.55;99768.56;5084399;28;20451;-47
2024/03/08 11:46:31;;;;;;;0.40;0.30;;;;;;;10.01;60.76;99758.13;5089849;28;20491;-47
2024/03/08 11:48:58;;;;;;;0.30;0.20;;;;;;;9.45;59.32;99758.22;5078861;28;20893;-47